Share

Valdosta, GA (31601)

Valdosta Regional (KVLD) Elev 203 ft | 30.78 °N, 83.27 °W | Change Station
Active Advisory: Flood Warning

Current weather conditions updated 51 minutes ago

Clear
Clear
52 °F
Feels Like 52 °F
N
0
Wind Variable Wind from North
Sunrise 6:59 AM
Sunset 8:05 PM
Moon Waning Gibbous

Today is forecast to be Much Warmer than yesterday.

Pressure 30.13 in
Visibility 4.0 miles
Clouds Clear
Dew Point 48 °F
Humidity 86%
Rainfall 0.00 in
Snow Depth Not available.
UV 0 out of 16
Pollen 8.90 out of 12
Air Quality Not available.
Flu Activity Sporadic
METAR KVLD 210853Z AUTO 00000KT 4SM BR CLR 11/09 A3010 RMK AO2 SLP201 T01110089 55007

More Conditions Fewer Conditions

Pressure 30.13 in
Visibility 4.0 miles
Clouds Clear
Dew Point 48 °F
Humidity 86%
Rainfall 0.00 in
Snow Depth Not available.
UV 0 out of 16
Pollen 8.90 out of 12
Air Quality Not available.
Flu Activity Sporadic
METAR KVLD 210853Z AUTO 00000KT 4SM BR CLR 11/09 A3010 RMK AO2 SLP201 T01110089 55007

More Conditions Fewer Conditions

10-Day Weather Forecast

Almanac

Astronomy

Apr. 21, 2014 Rise Set
Actual Time 6:59 AM EDT 8:05 PM EDT
Civil Twilight 6:34 AM EDT 8:30 PM EDT
Nautical Twilight 6:04 AM EDT 8:59 PM EDT
Astronomical Twilight 5:33 AM EDT 9:30 PM EDT
Moon 1:28 AM EDT 12:29 PM EDT
Length of Visible Light 13h 56m
Length of Day
13h 06m
Tomorrow will be 1m 42s longer.
Waning Gibbous, 61% of the Moon is Illuminated
Today
Waning Gibbous
Apr 22
Last Quarter
Apr 29
New
May 6
First Quarter
May 14
Full

Today's Extremes

State Highs State Lows

Community

  • Snowy Robin
    Snowy Robin
  • Sun Pillar and Geese
    Sun Pillar and Geese
  • Showers on the Way
    Showers on the Way
  • Easter Morning Fog
    Easter Morning Fog
  • Easter Dance
    Easter Dance

WunderPhotos

Upload Photos

1,703,579 photos uploaded!

Nearby

Snow Depth

Station Depth Elevation
No new snow has been reported.

Coastal Water Temperatures

Place Temperature
No Stations Reporting

Earthquake Activity

City Distance Mag. Time & Date
No recent earthquake activity has been reported nearby.
Minimum magnitude displayed is 2.5.

Nearby Weather Stations

Station Location Temp. Dew Point Humidity Wind Precip. Elev Updated Type
Cherry Lake WeatherSTEM, Florida, FL 51.5 °F 51 °F 99% NE  at  0.0 mph - / hr 157 ft 5:43 AM EDT Normal

Show More Stations Show Fewer Stations

What do you think?

We're not finished. Please let us know what you like, what you don't like, and what you are still missing.